| time (UTC) | temp C | wind direction | speed KPH | gust KPH | rain 1hr cm | rain 24hr cm | rain mn cm | humidity % | barometer mb |
| 20260509125203 | 10 | 271 | 6.4 | 14.5 | 0.00 | 2.67 | 0.00 | 81 | 999.1 |
| 20260509124702 | 10 | 186 | 8.0 | 14.5 | 0.00 | 2.67 | 0.00 | 83 | 998.9 |
| 20260509124202 | 10 | 259 | 6.4 | 11.3 | 0.00 | 2.67 | 0.00 | 83 | 999.1 |
| 20260509123703 | 10 | 199 | 4.8 | 12.9 | 0.00 | 2.67 | 0.00 | 84 | 999.0 |
| 20260509123202 | 10 | 172 | 6.4 | 19.3 | 0.00 | 2.67 | 0.00 | 85 | 998.8 |
| 20260509122703 | 10 | 226 | 4.8 | 16.1 | 0.00 | 2.67 | 0.00 | 86 | 998.9 |
| 20260509121702 | 10 | 178 | 6.4 | 11.3 | 0.00 | 2.67 | 0.00 | 86 | 998.5 |
| 20260509121203 | 10 | 207 | 8.0 | 14.5 | 0.00 | 2.67 | 0.00 | 87 | 998.6 |
| 20260509120703 | 10 | 247 | 6.4 | 12.9 | 0.00 | 2.67 | 0.00 | 87 | 998.6 |
| 20260509120203 | 10 | 204 | 4.8 | 11.3 | 0.00 | 2.69 | 0.00 | 87 | 998.5 |
| 20260509115702 | 9 | 187 | 8.0 | 20.9 | 0.00 | 2.72 | 0.00 | 86 | 998.5 |
| 20260509115203 | 10 | 193 | 6.4 | 12.9 | 0.00 | 2.72 | 0.00 | 87 | 998.8 |
| 20260509114702 | 10 | 201 | 8.0 | 14.5 | 0.00 | 2.72 | 0.00 | 87 | 998.7 |
| 20260509114203 | 10 | 190 | 9.7 | 19.3 | 0.00 | 2.72 | 0.00 | 87 | 998.7 |
| 20260509113702 | 9 | 173 | 8.0 | 16.1 | 0.00 | 2.72 | 0.00 | 87 | 998.5 |
| 20260509113203 | 9 | 182 | 6.4 | 20.9 | 0.00 | 2.72 | 0.00 | 87 | 998.5 |
| 20260509112703 | 10 | 199 | 4.8 | 19.3 | 0.00 | 2.72 | 0.00 | 87 | 998.5 |
| 20260509112202 | 10 | 201 | 6.4 | 14.5 | 0.00 | 2.72 | 0.00 | 87 | 998.6 |
| 20260509111703 | 10 | 228 | 8.0 | 19.3 | 0.00 | 2.72 | 0.00 | 87 | 998.6 |
| 20260509111203 | 10 | 187 | 6.4 | 19.3 | 0.00 | 2.72 | 0.00 | 87 | 998.6 |
| 20260509110702 | 10 | 204 | 4.8 | 14.5 | 0.00 | 2.72 | 0.00 | 86 | 998.6 |
| 20260509110203 | 10 | 174 | 4.8 | 22.5 | 0.00 | 2.72 | 0.00 | 86 | 998.5 |
| 20260509105703 | 10 | 187 | 6.4 | 20.9 | 0.00 | 2.72 | 0.00 | 86 | 998.7 |
| 20260509105203 | 10 | 201 | 8.0 | 12.9 | 0.00 | 2.72 | 0.00 | 86 | 998.5 |
| 20260509104702 | 10 | 182 | 8.0 | 27.4 | 0.00 | 2.72 | 0.00 | 85 | 998.6 |
| 20260509104203 | 10 | 182 | 4.8 | 19.3 | 0.00 | 2.74 | 0.00 | 85 | 998.6 |
| 20260509103703 | 10 | 185 | 8.0 | 19.3 | 0.00 | 2.74 | 0.00 | 86 | 998.8 |
| 20260509103203 | 10 | 172 | 8.0 | 22.5 | 0.00 | 2.74 | 0.00 | 85 | 998.7 |
| 20260509102703 | 10 | 189 | 6.4 | 14.5 | 0.00 | 2.74 | 0.00 | 85 | 998.7 |
| 20260509102203 | 10 | 260 | 6.4 | 20.9 | 0.00 | 2.74 | 0.00 | 85 | 998.7 |
| 20260509101702 | 10 | 171 | 9.7 | 24.1 | 0.00 | 2.82 | 0.00 | 85 | 998.8 |
| 20260509101203 | 10 | 224 | 9.7 | 20.9 | 0.00 | 2.82 | 0.00 | 85 | 998.7 |
| 20260509100703 | 10 | 213 | 9.7 | 22.5 | 0.00 | 2.82 | 0.00 | 84 | 998.9 |
| 20260509095203 | 11 | 239 | 9.7 | 25.7 | 0.00 | 2.82 | 0.00 | 83 | 999.0 |
| 20260509094702 | 11 | 223 | 11.3 | 27.4 | 0.00 | 2.82 | 0.00 | 83 | 999.1 |
| 20260509093703 | 11 | 209 | 6.4 | 16.1 | 0.00 | 2.82 | 0.00 | 82 | 999.2 |
| 20260509093202 | 11 | 202 | 9.7 | 25.7 | 0.00 | 2.82 | 0.00 | 82 | 999.3 |
| 20260509092703 | 11 | 183 | 4.8 | 24.1 | 0.00 | 2.82 | 0.00 | 81 | 999.3 |
| 20260509092203 | 11 | 218 | 8.0 | 20.9 | 0.00 | 2.82 | 0.00 | 81 | 999.4 |
| 20260509091703 | 11 | 200 | 8.0 | 19.3 | 0.00 | 2.82 | 0.00 | 80 | 999.5 |
| 20260509091203 | 11 | 178 | 9.7 | 19.3 | 0.00 | 2.84 | 0.00 | 79 | 999.5 |
| 20260509090203 | 11 | 224 | 9.7 | 24.1 | 0.00 | 2.84 | 0.00 | 79 | 999.7 |
| 20260509085703 | 11 | 210 | 9.7 | 19.3 | 0.00 | 2.84 | 0.00 | 78 | 999.7 |
| 20260509083703 | 11 | 194 | 4.8 | 12.9 | 0.00 | 2.90 | 0.00 | 77 | 999.7 |
| 20260509083203 | 11 | 210 | 4.8 | 11.3 | 0.00 | 2.90 | 0.00 | 76 | 999.9 |
| 20260509082703 | 11 | 201 | 6.4 | 12.9 | 0.00 | 2.90 | 0.00 | 75 | 999.9 |
| 20260509082203 | 11 | 187 | 12.9 | 25.7 | 0.00 | 2.92 | 0.00 | 75 | 1000.0 |
| 20260509081703 | 11 | 185 | 4.8 | 19.3 | 0.00 | 2.92 | 0.00 | 73 | 1000.0 |
| 20260509081203 | 11 | 204 | 6.4 | 16.1 | 0.00 | 2.92 | 0.00 | 73 | 1000.0 |
| 20260509080703 | 11 | 178 | 6.4 | 12.9 | 0.00 | 2.95 | 0.00 | 72 | 1000.1 |
| 20260509080203 | 12 | 188 | 8.0 | 16.1 | 0.00 | 2.97 | 0.00 | 71 | 1000.1 |
| 20260509075703 | 12 | 224 | 4.8 | 19.3 | 0.00 | 2.97 | 0.00 | 71 | 1000.0 |
| 20260509074704 | 12 | 205 | 6.4 | 11.3 | 0.00 | 2.97 | 0.00 | 70 | 1000.4 |
| 20260509074203 | 12 | 168 | 4.8 | 14.5 | 0.00 | 2.97 | 0.00 | 69 | 1000.5 |
| 20260509073703 | 13 | 243 | 6.4 | 14.5 | 0.00 | 2.97 | 0.00 | 69 | 1000.7 |
| 20260509073203 | 13 | 173 | 4.8 | 14.5 | 0.00 | 3.00 | 0.00 | 68 | 1000.8 |
| 20260509072703 | 13 | 189 | 11.3 | 24.1 | 0.00 | 3.00 | 0.00 | 67 | 1000.8 |
| 20260509072203 | 13 | 182 | 8.0 | 19.3 | 0.00 | 3.00 | 0.00 | 66 | 1000.9 |
| 20260509071703 | 13 | 194 | 11.3 | 27.4 | 0.00 | 3.00 | 0.00 | 66 | 1000.9 |
| 20260509071203 | 13 | 175 | 8.0 | 19.3 | 0.00 | 3.00 | 0.00 | 66 | 1001.1 |
| 20260509070704 | 13 | 181 | 6.4 | 16.1 | 0.00 | 3.05 | 0.00 | 66 | 1001.0 |
| 20260509070203 | 13 | 187 | 6.4 | 25.7 | 0.00 | 3.07 | 0.00 | 66 | 1001.2 |
| 20260509065703 | 13 | 191 | 4.8 | 11.3 | 0.00 | 3.07 | 0.00 | 65 | 1001.4 |
| 20260509065204 | 13 | 194 | 6.4 | 24.1 | 0.00 | 3.10 | 0.00 | 64 | 1001.5 |
| 20260509064703 | 13 | 198 | 4.8 | 19.3 | 0.00 | 3.12 | 0.00 | 63 | 1001.7 |
| 20260509064203 | 13 | 183 | 4.8 | 19.3 | 0.00 | 3.12 | 0.00 | 60 | 1001.7 |
| 20260509063204 | 13 | 188 | 3.2 | 9.7 | 0.00 | 3.17 | 0.00 | 57 | 1001.9 |
| 20260509062703 | 13 | 178 | 3.2 | 4.8 | 0.00 | 3.17 | 0.00 | 56 | 1001.8 |
| 20260509062204 | 12 | 182 | 3.2 | 9.7 | 0.00 | 3.17 | 0.00 | 54 | 1002.1 |
| 20260509061703 | 12 | 176 | 3.2 | 12.9 | 0.00 | 3.17 | 0.00 | 53 | 1002.2 |
| 20260509061204 | 12 | 204 | 1.6 | 8.0 | 0.00 | 3.17 | 0.00 | 52 | 1002.3 |
| 20260509060703 | 12 | 192 | 1.6 | 4.8 | 0.00 | 3.17 | 0.00 | 50 | 1002.4 |
| 20260509060203 | 12 | 201 | 1.6 | 4.8 | 0.00 | 3.17 | 0.00 | 49 | 1002.5 |
| 20260509055703 | 12 | 167 | 3.2 | 8.0 | 0.00 | 3.17 | 0.00 | 49 | 1002.7 |
| 20260509055203 | 12 | 157 | 1.6 | 4.8 | 0.00 | 3.17 | 0.00 | 48 | 1002.6 |
| 20260509054704 | 12 | 178 | 1.6 | 8.0 | 0.00 | 3.17 | 0.00 | 48 | 1002.7 |
| 20260509054203 | 12 | 185 | 0.0 | 3.2 | 0.00 | 3.17 | 0.00 | 48 | 1002.8 |
| 20260509053704 | 12 | 184 | 0.0 | 3.2 | 0.00 | 3.17 | 0.00 | 47 | 1002.9 |
| 20260509053203 | 12 | 187 | 1.6 | 4.8 | 0.00 | 3.17 | 0.00 | 46 | 1003.0 |
| 20260509052704 | 12 | 299 | 3.2 | 4.8 | 0.00 | 3.17 | 0.00 | 45 | 1003.1 |
| 20260509052204 | 12 | 178 | 0.0 | 1.6 | 0.00 | 3.17 | 0.00 | 42 | 1003.1 |
| 20260509051703 | 12 | 177 | 1.6 | 8.0 | 0.00 | 3.17 | 0.00 | 41 | 1003.1 |
| 20260509051204 | 12 | 228 | 1.6 | 4.8 | 0.00 | 3.17 | 0.00 | 40 | 1003.1 |
| 20260509050703 | 12 | 186 | 3.2 | 4.8 | 0.00 | 3.17 | 0.00 | 40 | 1003.1 |
| 20260509050204 | 12 | 165 | 1.6 | 1.6 | 0.00 | 3.17 | 0.00 | 39 | 1003.1 |
| 20260509045204 | 12 | 246 | 0.0 | 4.8 | 0.00 | 0.00 | 0.00 | 39 | 1003.2 |
| 20260509044203 | 11 | 194 | 0.0 | 1.6 | 0.00 | 0.00 | 0.00 | 38 | 1003.3 |
| 20260509043704 | 12 | 194 | 0.0 | 1.6 | 0.00 | 0.00 | 0.00 | 38 | 1003.3 |
| 20260509043204 | 12 | 194 | 0.0 | 0.0 | 0.00 | 0.00 | 0.00 | 40 | 1003.4 |
| 20260509042704 | 12 | 194 | 0.0 | 0.0 | 0.00 | 0.00 | 0.00 | 35 | 1003.5 |
| 20260509041704 | 12 | 194 | 0.0 | 1.6 | 0.00 | 0.00 | 0.00 | 35 | 1003.6 |
| 20260509041203 | 12 | 194 | 0.0 | 3.2 | 0.00 | 0.00 | 0.00 | 33 | 1003.7 |
| 20260509040703 | 12 | 194 | 0.0 | 4.8 | 0.00 | 0.00 | 0.00 | 34 | 1003.7 |
| 20260509040203 | 12 | 178 | 1.6 | 8.0 | 0.00 | 0.00 | 0.00 | 34 | 1003.7 |
| 20260509035203 | 12 | 217 | 1.6 | 3.2 | 0.00 | 0.00 | 0.00 | 33 | 1003.9 |
| 20260509034702 | 12 | 210 | 1.6 | 4.8 | 0.00 | 0.00 | 0.00 | 33 | 1004.1 |
| 20260509034203 | 12 | 178 | 3.2 | 9.7 | 0.00 | 0.00 | 0.00 | 33 | 1004.2 |
| 20260509033702 | 12 | 174 | 1.6 | 4.8 | 0.00 | 0.00 | 0.00 | 33 | 1004.2 |
| 20260509033203 | 12 | 195 | 0.0 | 4.8 | 0.00 | 0.00 | 0.00 | 34 | 1004.3 |
| 20260509032203 | 12 | 185 | 1.6 | 4.8 | 0.00 | 0.00 | 0.00 | 34 | 1004.3 |
| 20260509031702 | 12 | 172 | 3.2 | 4.8 | 0.00 | 0.00 | 0.00 | 34 | 1004.2 |
| 20260509031203 | 12 | 182 | 1.6 | 4.8 | 0.00 | 0.00 | 0.00 | 35 | 1004.2 |
| 20260509030702 | 12 | 167 | 0.0 | 4.8 | 0.00 | 0.00 | 0.00 | 35 | 1004.3 |
| 20260509030203 | 12 | 172 | 1.6 | 4.8 | 0.00 | 0.00 | 0.00 | 35 | 1004.4 |
| 20260509025202 | 12 | 172 | 3.2 | 9.7 | 0.00 | 0.00 | 0.00 | 37 | 1004.5 |
| 20260509024702 | 12 | 169 | 0.0 | 3.2 | 0.00 | 0.00 | 0.00 | 38 | 1004.5 |
| 20260509024203 | 12 | 176 | 1.6 | 4.8 | 0.00 | 0.00 | 0.00 | 40 | 1004.5 |
| 20260509023702 | 11 | 173 | 0.0 | 4.8 | 0.00 | 0.00 | 0.00 | 42 | 1004.5 |
| 20260509023203 | 11 | 156 | 0.0 | 3.2 | 0.00 | 0.00 | 0.00 | 43 | 1004.5 |
| 20260509022703 | 11 | 155 | 0.0 | 1.6 | 0.00 | 0.00 | 0.00 | 42 | 1004.5 |
| 20260509022202 | 11 | 155 | 0.0 | 1.6 | 0.00 | 0.00 | 0.00 | 44 | 1004.6 |
| 20260509021703 | 11 | 155 | 0.0 | 0.0 | 0.00 | 0.00 | 0.00 | 44 | 1004.6 |
| 20260509021202 | 11 | 155 | 0.0 | 0.0 | 0.00 | 0.00 | 0.00 | 46 | 1004.6 |
| 20260509020703 | 11 | 155 | 0.0 | 0.0 | 0.00 | 0.00 | 0.00 | 44 | 1004.6 |
| 20260509020203 | 11 | 155 | 0.0 | 1.6 | 0.00 | 0.00 | 0.00 | 44 | 1004.6 |
| 20260509015703 | 11 | 155 | 0.0 | 1.6 | 0.00 | 0.00 | 0.00 | 43 | 1004.5 |
| 20260509015202 | 11 | 155 | 0.0 | 1.6 | 0.00 | 0.00 | 0.00 | 43 | 1004.5 |
| 20260509014703 | 11 | 155 | 0.0 | 1.6 | 0.00 | 0.00 | 0.00 | 42 | 1004.5 |
| 20260509014202 | 11 | 155 | 0.0 | 1.6 | 0.00 | 0.00 | 0.00 | 41 | 1004.5 |
| 20260509013703 | 12 | 155 | 0.0 | 3.2 | 0.00 | 0.00 | 0.00 | 41 | 1004.6 |
| 20260509013203 | 12 | 155 | 0.0 | 1.6 | 0.00 | 0.00 | 0.00 | 42 | 1004.7 |
| 20260509012703 | 12 | 155 | 0.0 | 3.2 | 0.00 | 0.00 | 0.00 | 41 | 1004.6 |
| 20260509012203 | 12 | 155 | 0.0 | 4.8 | 0.00 | 0.00 | 0.00 | 41 | 1004.7 |
| 20260509011703 | 12 | 191 | 0.0 | 1.6 | 0.00 | 0.00 | 0.00 | 41 | 1004.7 |
| 20260509011202 | 12 | 190 | 0.0 | 0.0 | 0.00 | 0.00 | 0.00 | 42 | 1004.7 |
| 20260509010703 | 12 | 190 | 0.0 | 0.0 | 0.00 | 0.00 | 0.00 | 39 | 1004.7 |
| 20260509010203 | 12 | 190 | 0.0 | 1.6 | 0.00 | 0.00 | 0.00 | 40 | 1004.7 |
| 20260509005203 | 13 | 190 | 0.0 | 1.6 | 0.00 | 0.00 | 0.00 | 40 | 1004.7 |
| 20260509004703 | 13 | 190 | 0.0 | 0.0 | 0.00 | 0.00 | 0.00 | 36 | 1004.7 |
| 20260509004203 | 13 | 190 | 0.0 | 3.2 | 0.00 | 0.00 | 0.00 | 36 | 1004.7 |
| 20260509003703 | 13 | 191 | 1.6 | 3.2 | 0.00 | 0.00 | 0.00 | 35 | 1004.7 |
| 20260509003203 | 13 | 178 | 3.2 | 8.0 | 0.00 | 0.00 | 0.00 | 35 | 1004.7 |
| 20260509002702 | 13 | 181 | 1.6 | 4.8 | 0.00 | 0.00 | 0.00 | 36 | 1004.7 |
| 20260509002203 | 14 | 184 | 0.0 | 3.2 | 0.00 | 0.00 | 0.00 | 36 | 1004.8 |
| 20260509001203 | 14 | 176 | 0.0 | 3.2 | 0.00 | 0.00 | 0.00 | 35 | 1004.8 |
| 20260509000204 | 14 | 157 | 3.2 | 11.3 | 0.00 | 0.00 | 0.00 | 35 | 1004.9 |
| 20260508235703 | 14 | 192 | 3.2 | 8.0 | 0.00 | 0.00 | 0.00 | 35 | 1004.9 |
| 20260508234202 | 13 | 177 | 1.6 | 4.8 | 0.00 | 0.00 | 0.00 | 37 | 1005.1 |
| 20260508233703 | 13 | 182 | 3.2 | 12.9 | 0.00 | 0.00 | 0.00 | 37 | 1005.2 |
| 20260508233203 | 13 | 177 | 3.2 | 4.8 | 0.00 | 0.00 | 0.00 | 38 | 1005.3 |
| 20260508232703 | 13 | 188 | 1.6 | 4.8 | 0.00 | 0.00 | 0.00 | 38 | 1005.3 |
| 20260508232203 | 13 | 170 | 3.2 | 9.7 | 0.00 | 0.00 | 0.00 | 37 | 1005.4 |
| 20260508231703 | 13 | 228 | 3.2 | 19.3 | 0.00 | 0.00 | 0.00 | 37 | 1005.4 |
| 20260508231203 | 13 | 172 | 3.2 | 11.3 | 0.00 | 0.00 | 0.00 | 37 | 1005.5 |
| 20260508230703 | 13 | 187 | 3.2 | 9.7 | 0.00 | 0.00 | 0.00 | 37 | 1005.6 |
| 20260508230203 | 13 | 182 | 4.8 | 12.9 | 0.00 | 0.00 | 0.00 | 36 | 1005.5 |
| 20260508225203 | 13 | 172 | 4.8 | 14.5 | 0.00 | 0.00 | 0.00 | 37 | 1005.5 |
| 20260508224704 | 13 | 200 | 6.4 | 14.5 | 0.00 | 0.00 | 0.00 | 36 | 1005.6 |
| 20260508224203 | 13 | 177 | 6.4 | 11.3 | 0.00 | 0.00 | 0.00 | 37 | 1005.7 |
| 20260508223702 | 14 | 175 | 8.0 | 16.1 | 0.00 | 0.00 | 0.00 | 37 | 1005.7 |
| 20260508223203 | 14 | 195 | 8.0 | 19.3 | 0.00 | 0.00 | 0.00 | 36 | 1005.7 |
| 20260508222203 | 14 | 178 | 8.0 | 16.1 | 0.00 | 0.00 | 0.00 | 36 | 1005.8 |
| 20260508221704 | 14 | 202 | 8.0 | 16.1 | 0.00 | 0.00 | 0.00 | 36 | 1005.8 |
| 20260508220203 | 14 | 202 | 8.0 | 19.3 | 0.00 | 0.00 | 0.00 | 36 | 1005.9 |
| 20260508215703 | 14 | 191 | 4.8 | 12.9 | 0.00 | 0.00 | 0.00 | 37 | 1006.0 |
| 20260508215203 | 14 | 168 | 8.0 | 14.5 | 0.00 | 0.00 | 0.00 | 37 | 1006.0 |
| 20260508214703 | 14 | 205 | 9.7 | 19.3 | 0.00 | 0.00 | 0.00 | 36 | 1006.0 |
| 20260508214203 | 14 | 192 | 6.4 | 11.3 | 0.00 | 0.00 | 0.00 | 36 | 1006.0 |
| 20260508213704 | 14 | 194 | 8.0 | 19.3 | 0.00 | 0.00 | 0.00 | 36 | 1006.1 |
| 20260508213204 | 14 | 203 | 4.8 | 22.5 | 0.00 | 0.00 | 0.00 | 36 | 1006.0 |
| 20260508212703 | 14 | 196 | 8.0 | 19.3 | 0.00 | 0.00 | 0.00 | 36 | 1006.1 |
| 20260508212204 | 14 | 186 | 9.7 | 16.1 | 0.00 | 0.00 | 0.00 | 35 | 1006.2 |
| 20260508211703 | 14 | 167 | 9.7 | 19.3 | 0.00 | 0.00 | 0.00 | 36 | 1006.2 |
| 20260508211203 | 14 | 182 | 4.8 | 16.1 | 0.00 | 0.00 | 0.00 | 37 | 1006.3 |
| 20260508210704 | 13 | 205 | 9.7 | 19.3 | 0.00 | 0.00 | 0.00 | 36 | 1006.4 |
| 20260508210203 | 13 | 181 | 14.5 | 33.8 | 0.00 | 0.00 | 0.00 | 34 | 1006.4 |
| 20260508205704 | 13 | 211 | 9.7 | 24.1 | 0.00 | 0.00 | 0.00 | 36 | 1006.4 |
| 20260508205204 | 13 | 184 | 8.0 | 16.1 | 0.00 | 0.00 | 0.00 | 36 | 1006.5 |
| 20260508204704 | 14 | 170 | 11.3 | 27.4 | 0.00 | 0.00 | 0.00 | 36 | 1006.6 |
| 20260508204203 | 14 | 162 | 12.9 | 32.2 | 0.00 | 0.00 | 0.00 | 35 | 1006.7 |
| 20260508203703 | 14 | 212 | 8.0 | 14.5 | 0.00 | 0.00 | 0.00 | 37 | 1006.7 |
| 20260508203203 | 14 | 211 | 8.0 | 16.1 | 0.00 | 0.00 | 0.00 | 35 | 1006.8 |
| 20260508202704 | 15 | 202 | 6.4 | 19.3 | 0.00 | 0.00 | 0.00 | 37 | 1006.8 |
| 20260508202203 | 14 | 181 | 6.4 | 16.1 | 0.00 | 0.00 | 0.00 | 35 | 1006.9 |
| 20260508201703 | 15 | 180 | 12.9 | 33.8 | 0.00 | 0.00 | 0.00 | 32 | 1006.8 |
| 20260508201204 | 15 | 227 | 4.8 | 14.5 | 0.00 | 0.00 | 0.00 | 35 | 1006.9 |
| 20260508200704 | 14 | 210 | 9.7 | 19.3 | 0.00 | 0.00 | 0.00 | 34 | 1006.9 |
| 20260508200203 | 14 | 188 | 11.3 | 25.7 | 0.00 | 0.00 | 0.00 | 34 | 1007.0 |
| 20260508195703 | 14 | 183 | 9.7 | 16.1 | 0.00 | 0.00 | 0.00 | 33 | 1007.1 |
| 20260508194704 | 14 | 192 | 9.7 | 20.9 | 0.00 | 0.00 | 0.00 | 33 | 1007.3 |
| 20260508194203 | 14 | 178 | 9.7 | 19.3 | 0.00 | 0.00 | 0.00 | 33 | 1007.3 |
| 20260508193704 | 14 | 183 | 11.3 | 27.4 | 0.00 | 0.00 | 0.00 | 32 | 1007.4 |
| 20260508192203 | 15 | 191 | 6.4 | 19.3 | 0.00 | 0.00 | 0.00 | 35 | 1007.4 |
| 20260508190704 | 14 | 236 | 8.0 | 12.9 | 0.00 | 0.00 | 0.00 | 38 | 1007.6 |
| 20260508190202 | 14 | 180 | 8.0 | 16.1 | 0.00 | 0.00 | 0.00 | 38 | 1007.7 |
| 20260508185702 | 14 | 180 | 11.3 | 24.1 | 0.00 | 0.00 | 0.00 | 37 | 1007.9 |
| 20260508185203 | 14 | 246 | 8.0 | 16.1 | 0.00 | 0.00 | 0.00 | 38 | 1007.9 |
| 20260508184702 | 13 | 238 | 4.8 | 19.3 | 0.00 | 0.00 | 0.00 | 40 | 1008.0 |
| 20260508184202 | 13 | 229 | 4.8 | 16.1 | 0.00 | 0.00 | 0.00 | 41 | 1008.0 |
| 20260508183702 | 13 | 186 | 11.3 | 25.7 | 0.00 | 0.00 | 0.00 | 39 | 1008.1 |
| 20260508183202 | 13 | 191 | 8.0 | 22.5 | 0.00 | 0.00 | 0.00 | 42 | 1008.1 |
| 20260508182702 | 13 | 223 | 8.0 | 22.5 | 0.00 | 0.00 | 0.00 | 41 | 1008.2 |
| 20260508181703 | 13 | 220 | 6.4 | 12.9 | 0.00 | 0.00 | 0.00 | 46 | 1008.4 |
| 20260508181202 | 13 | 206 | 11.3 | 24.1 | 0.00 | 0.00 | 0.00 | 45 | 1008.6 |
| 20260508180702 | 13 | 224 | 8.0 | 24.1 | 0.00 | 0.00 | 0.00 | 46 | 1008.7 |
| 20260508180203 | 13 | 186 | 8.0 | 19.3 | 0.00 | 0.00 | 0.00 | 46 | 1008.7 |
| 20260508174702 | 13 | 208 | 4.8 | 14.5 | 0.00 | 0.00 | 0.00 | 48 | 1008.9 |
| 20260508174202 | 13 | 164 | 8.0 | 22.5 | 0.00 | 0.00 | 0.00 | 48 | 1009.0 |
| 20260508173703 | 13 | 184 | 9.7 | 16.1 | 0.00 | 0.00 | 0.00 | 50 | 1009.1 |
| 20260508173203 | 12 | 250 | 4.8 | 14.5 | 0.00 | 0.00 | 0.00 | 53 | 1009.2 |
| 20260508172702 | 12 | 177 | 8.0 | 19.3 | 0.00 | 0.00 | 0.00 | 52 | 1009.3 |
| 20260508172203 | 12 | 199 | 6.4 | 19.3 | 0.00 | 0.00 | 0.00 | 53 | 1009.4 |
| 20260508171702 | 12 | 206 | 4.8 | 11.3 | 0.00 | 0.00 | 0.00 | 56 | 1009.5 |
| 20260508171202 | 12 | 243 | 8.0 | 12.9 | 0.00 | 0.00 | 0.00 | 56 | 1009.5 |
| 20260508170202 | 12 | 176 | 8.0 | 16.1 | 0.00 | 0.00 | 0.00 | 57 | 1009.6 |
| 20260508165703 | 12 | 219 | 8.0 | 19.3 | 0.00 | 0.00 | 0.00 | 56 | 1009.7 |
| 20260508165203 | 12 | 178 | 9.7 | 24.1 | 0.00 | 0.00 | 0.00 | 56 | 1009.7 |
| 20260508164702 | 12 | 201 | 8.0 | 12.9 | 0.00 | 0.00 | 0.00 | 57 | 1009.7 |
| 20260508164203 | 12 | 162 | 4.8 | 14.5 | 0.00 | 0.00 | 0.00 | 57 | 1009.8 |
| 20260508163703 | 12 | 235 | 8.0 | 16.1 | 0.00 | 0.00 | 0.00 | 57 | 1009.8 |
| 20260508163203 | 12 | 188 | 9.7 | 16.1 | 0.00 | 0.00 | 0.00 | 57 | 1009.9 |
| 20260508162703 | 12 | 198 | 9.7 | 25.7 | 0.00 | 0.00 | 0.00 | 56 | 1009.8 |
| 20260508161703 | 12 | 213 | 8.0 | 19.3 | 0.00 | 0.00 | 0.00 | 58 | 1009.8 |
| 20260508161203 | 12 | 199 | 11.3 | 22.5 | 0.00 | 0.00 | 0.00 | 56 | 1009.9 |
| 20260508160703 | 12 | 268 | 4.8 | 16.1 | 0.00 | 0.00 | 0.00 | 55 | 1009.9 |
| 20260508160203 | 12 | 196 | 8.0 | 14.5 | 0.00 | 0.00 | 0.00 | 55 | 1009.9 |
| 20260508155703 | 12 | 224 | 8.0 | 14.5 | 0.00 | 0.00 | 0.00 | 56 | 1009.8 |
| 20260508155203 | 12 | 174 | 8.0 | 20.9 | 0.00 | 0.00 | 0.00 | 55 | 1009.8 |
| 20260508154702 | 11 | 196 | 4.8 | 12.9 | 0.00 | 0.00 | 0.00 | 57 | 1009.9 |
| 20260508153703 | 11 | 174 | 9.7 | 22.5 | 0.00 | 0.00 | 0.00 | 57 | 1009.9 |
| 20260508153203 | 11 | 190 | 8.0 | 25.7 | 0.00 | 0.00 | 0.00 | 57 | 1009.9 |
| 20260508152703 | 11 | 248 | 4.8 | 14.5 | 0.00 | 0.00 | 0.00 | 58 | 1010.0 |
| 20260508152202 | 11 | 238 | 8.0 | 20.9 | 0.00 | 0.00 | 0.00 | 59 | 1010.0 |
| 20260508151703 | 11 | 187 | 9.7 | 19.3 | 0.00 | 0.00 | 0.00 | 57 | 1010.0 |
| 20260508151203 | 11 | 166 | 6.4 | 16.1 | 0.00 | 0.00 | 0.00 | 60 | 1010.0 |
| 20260508150703 | 11 | 228 | 6.4 | 16.1 | 0.00 | 0.00 | 0.00 | 61 | 1010.0 |
| 20260508150203 | 11 | 242 | 8.0 | 19.3 | 0.00 | 0.00 | 0.00 | 62 | 1010.0 |
| 20260508145703 | 11 | 250 | 4.8 | 14.5 | 0.00 | 0.00 | 0.00 | 62 | 1010.0 |
| 20260508145203 | 10 | 234 | 8.0 | 19.3 | 0.00 | 0.00 | 0.00 | 62 | 1010.1 |
| 20260508144703 | 10 | 213 | 8.0 | 16.1 | 0.00 | 0.00 | 0.00 | 62 | 1010.2 |
| 20260508144204 | 10 | 190 | 9.7 | 20.9 | 0.00 | 0.00 | 0.00 | 62 | 1010.2 |
| 20260508143703 | 10 | 183 | 8.0 | 20.9 | 0.00 | 0.00 | 0.00 | 63 | 1010.2 |
| 20260508143203 | 10 | 240 | 6.4 | 12.9 | 0.00 | 0.00 | 0.00 | 63 | 1010.2 |
| 20260508142703 | 10 | 198 | 8.0 | 19.3 | 0.00 | 0.00 | 0.00 | 64 | 1010.2 |
| 20260508142203 | 10 | 253 | 8.0 | 16.1 | 0.00 | 0.00 | 0.00 | 64 | 1010.2 |
| 20260508141703 | 10 | 201 | 6.4 | 14.5 | 0.00 | 0.00 | 0.00 | 64 | 1010.2 |
| 20260508140703 | 10 | 204 | 6.4 | 11.3 | 0.00 | 0.00 | 0.00 | 64 | 1010.2 |
| 20260508140203 | 10 | 200 | 6.4 | 20.9 | 0.00 | 0.00 | 0.00 | 65 | 1010.1 |
| 20260508135704 | 10 | 202 | 6.4 | 12.9 | 0.00 | 0.00 | 0.00 | 67 | 1010.2 |
| 20260508135203 | 10 | 175 | 9.7 | 22.5 | 0.00 | 0.00 | 0.00 | 66 | 1010.2 |
| 20260508134703 | 9 | 165 | 8.0 | 16.1 | 0.00 | 0.00 | 0.00 | 67 | 1010.2 |
| 20260508134203 | 9 | 200 | 4.8 | 11.3 | 0.00 | 0.00 | 0.00 | 67 | 1010.2 |
| 20260508133703 | 9 | 236 | 4.8 | 11.3 | 0.00 | 0.00 | 0.00 | 68 | 1010.2 |
| 20260508132703 | 8 | 190 | 4.8 | 11.3 | 0.00 | 0.00 | 0.00 | 69 | 1010.3 |
| 20260508132203 | 8 | 174 | 6.4 | 11.3 | 0.00 | 0.00 | 0.00 | 69 | 1010.3 |
| 20260508131703 | 8 | 179 | 8.0 | 14.5 | 0.00 | 0.00 | 0.00 | 69 | 1010.3 |
| 20260508131204 | 8 | 188 | 8.0 | 11.3 | 0.00 | 0.00 | 0.00 | 70 | 1010.4 |
| 20260508130703 | 8 | 231 | 8.0 | 19.3 | 0.00 | 0.00 | 0.00 | 70 | 1010.5 |
| 20260508130203 | 8 | 185 | 8.0 | 16.1 | 0.00 | 0.00 | 0.00 | 71 | 1010.5 |
| 20260508125703 | 8 | 179 | 8.0 | 19.3 | 0.00 | 0.00 | 0.00 | 72 | 1010.5 |